Time;durP1;ratioP1;P1;durP2;ratioP2;P2;SDS_P1;SDS_P2;PMS_P1;PMS_P2;Temp;Humidity;BMP_temperature;BMP_pressure;BME280_temperature;BME280_humidity;BME280_pressure;Samples;Min_cycle;Max_cycle;Signal;HPM_P1;HPM_P2
2022/10/18 00:00:37;;;;;;;19.35;9.57;;;;;;;13.34;100.00;102632.19;5027753;28;20025;-60
2022/10/18 00:03:02;;;;;;;18.88;10.88;;;;;;;13.32;100.00;102637.50;5026946;28;20029;-62
2022/10/18 00:05:27;;;;;;;17.08;10.25;;;;;;;13.25;100.00;102636.72;5027843;28;20447;-62
2022/10/18 00:07:53;;;;;;;27.40;12.35;;;;;;;13.25;100.00;102630.56;5028398;28;20029;-62
2022/10/18 00:10:18;;;;;;;21.23;10.40;;;;;;;13.24;100.00;102634.09;5027750;28;20021;-62
2022/10/18 00:12:43;;;;;;;15.02;9.88;;;;;;;13.19;100.00;102635.97;5028276;28;20448;-62
2022/10/18 00:15:10;;;;;;;18.13;10.52;;;;;;;13.04;100.00;102635.31;5027549;28;20041;-63
2022/10/18 00:17:36;;;;;;;18.73;9.95;;;;;;;13.04;100.00;102637.97;5025715;28;20654;-62
2022/10/18 00:20:01;;;;;;;20.90;10.13;;;;;;;12.99;100.00;102645.06;5027824;28;20061;-62
2022/10/18 00:22:27;;;;;;;17.92;10.00;;;;;;;12.93;100.00;102631.94;5026812;28;20456;-61
2022/10/18 00:24:52;;;;;;;17.42;9.27;;;;;;;12.84;100.00;102636.47;5026922;28;20030;-62
2022/10/18 00:27:18;;;;;;;15.80;8.55;;;;;;;12.76;100.00;102646.28;5027404;28;20066;-62
2022/10/18 00:29:43;;;;;;;17.60;9.65;;;;;;;12.71;100.00;102648.13;5027435;28;20487;-62
2022/10/18 00:32:10;;;;;;;16.65;9.32;;;;;;;12.67;100.00;102646.44;5027070;28;20079;-62
2022/10/18 00:34:37;;;;;;;19.92;9.95;;;;;;;12.66;100.00;102647.31;5027501;28;20033;-62
2022/10/18 00:37:02;;;;;;;20.30;10.35;;;;;;;12.61;100.00;102652.66;5010359;28;20036;-61
2022/10/18 00:39:27;;;;;;;17.02;10.25;;;;;;;12.54;100.00;102657.16;5027316;28;20108;-62
2022/10/18 00:41:53;;;;;;;20.45;11.13;;;;;;;12.46;100.00;102645.81;5027425;28;20113;-63
2022/10/18 00:44:24;;;;;;;14.57;9.02;;;;;;;12.40;100.00;102651.19;5026991;28;20052;-62
2022/10/18 00:46:50;;;;;;;16.50;10.15;;;;;;;12.41;100.00;102642.34;5028994;28;20716;-63
2022/10/18 00:49:16;;;;;;;23.30;11.13;;;;;;;12.47;100.00;102652.84;5029539;28;20037;-62
2022/10/18 00:51:45;;;;;;;21.70;11.55;;;;;;;12.49;100.00;102646.63;5009489;28;20108;-62
2022/10/18 00:54:14;;;;;;;19.08;10.85;;;;;;;12.47;100.00;102663.44;5026584;28;20025;-61
2022/10/18 00:56:39;;;;;;;;;;;;;;;12.42;100.00;102665.25;5009710;28;20029;-61
2022/10/18 00:59:04;;;;;;;19.30;10.68;;;;;;;12.45;100.00;102659.91;5026666;28;20315;-60
2022/10/18 01:01:30;;;;;;;30.77;13.05;;;;;;;12.53;100.00;102660.72;5036555;28;20025;-62
2022/10/18 01:03:56;;;;;;;28.35;12.10;;;;;;;12.60;100.00;102656.19;5046303;28;20025;-61
2022/10/18 01:06:21;;;;;;;28.63;13.30;;;;;;;12.67;100.00;102657.00;5127929;22;20072;-67
2022/10/18 01:09:07;;;;;;;27.00;12.40;;;;;;;12.68;100.00;102661.41;5067195;28;20500;-65
2022/10/18 01:12:05;;;;;;;17.08;10.07;;;;;;;12.60;100.00;102658.84;5067470;28;20116;-66
2022/10/18 01:14:51;;;;;;;18.02;10.45;;;;;;;12.48;100.00;102659.88;5049522;28;20033;-67
2022/10/18 01:17:20;;;;;;;20.08;11.13;;;;;;;12.40;100.00;102669.69;5048163;28;20029;-66
2022/10/18 01:20:05;;;;;;;19.85;10.70;;;;;;;12.34;100.00;102665.34;5048031;28;20025;-65
2022/10/18 01:22:36;;;;;;;17.15;10.20;;;;;;;12.26;100.00;102662.81;5048208;28;20721;-64
2022/10/18 01:25:10;;;;;;;26.15;10.32;;;;;;;12.29;100.00;102664.53;5048504;28;20031;-65
2022/10/18 01:27:58;;;;;;;26.80;12.38;;;;;;;12.35;100.00;102665.34;5066764;28;20028;-65
2022/10/18 01:30:45;;;;;;;27.57;12.93;;;;;;;12.43;100.00;102669.66;5048169;28;20034;-64
2022/10/18 01:33:19;;;;;;;23.88;11.35;;;;;;;12.40;100.00;102661.75;5065812;28;20281;-65
2022/10/18 01:35:50;;;;;;;20.88;10.85;;;;;;;12.27;100.00;102661.91;5048748;28;20421;-64
2022/10/18 01:38:18;;;;;;;20.73;10.52;;;;;;;12.19;100.00;102663.78;5048321;28;20021;-64
2022/10/18 01:40:46;;;;;;;16.85;9.95;;;;;;;12.12;100.00;102660.31;5066399;28;20036;-66
2022/10/18 01:43:13;;;;;;;16.65;10.10;;;;;;;12.05;100.00;102669.16;5048369;28;20021;-64
2022/10/18 01:45:40;;;;;;;17.10;8.77;;;;;;;11.99;100.00;102671.00;5066280;28;20119;-65
2022/10/18 01:48:05;;;;;;;13.43;9.43;;;;;;;11.94;100.00;102663.97;5047942;28;20082;-65
2022/10/18 01:50:33;;;;;;;15.00;9.38;;;;;;;11.92;100.00;102653.44;5047933;28;20028;-64
2022/10/18 01:52:58;;;;;;;18.58;11.32;;;;;;;12.04;100.00;102662.13;5065896;28;20029;-64
2022/10/18 01:55:36;;;;;;;20.08;11.20;;;;;;;12.09;100.00;102668.25;5047222;28;20546;-65
2022/10/18 01:58:12;;;;;;;37.00;14.77;;;;;;;12.15;100.00;102683.16;5050812;28;20064;-64
2022/10/18 02:00:41;;;;;;;19.33;12.13;;;;;;;12.12;100.00;102678.81;5069866;28;20029;-65
2022/10/18 02:03:33;;;;;;;23.05;11.88;;;;;;;12.12;100.00;102681.44;5068927;28;20480;-65
2022/10/18 02:05:58;;;;;;;26.30;12.63;;;;;;;12.13;100.00;102669.97;5047557;28;20040;-63
2022/10/18 02:08:30;;;;;;;18.30;11.23;;;;;;;12.10;100.00;102672.69;5069743;28;20222;-64
2022/10/18 02:11:02;;;;;;;23.98;11.00;;;;;;;12.04;100.00;102673.56;5051751;28;20029;-64
2022/10/18 02:13:50;;;;;;;20.98;10.20;;;;;;;11.98;100.00;102671.00;5069751;28;20111;-64
2022/10/18 02:16:19;;;;;;;22.55;10.32;;;;;;;11.99;100.00;102667.47;5035180;28;20127;-63
2022/10/18 02:18:49;;;;;;;24.13;11.50;;;;;;;11.97;100.00;102669.22;5050421;28;20051;-66
2022/10/18 02:21:16;;;;;;;26.30;11.65;;;;;;;11.99;100.00;102675.38;5051317;28;20052;-65
2022/10/18 02:23:44;;;;;;;19.52;10.88;;;;;;;11.97;100.00;102677.16;5051447;28;20024;-64
2022/10/18 02:26:09;;;;;;;22.00;10.68;;;;;;;11.89;100.00;102677.22;5051301;28;20078;-64
2022/10/18 02:28:34;;;;;;;18.23;10.35;;;;;;;11.83;100.00;102687.88;5069830;28;20029;-64
2022/10/18 02:31:09;;;;;;;21.42;11.57;;;;;;;11.77;100.00;102687.94;5070023;28;20060;-64
2022/10/18 02:33:37;;;;;;;26.85;11.70;;;;;;;11.71;100.00;102688.88;5069007;28;20025;-63
2022/10/18 02:36:08;;;;;;;27.63;12.20;;;;;;;11.70;100.00;102685.34;5069823;28;20025;-64
2022/10/18 02:38:34;;;;;;;33.63;14.35;;;;;;;11.69;100.00;102682.72;5051266;28;20038;-64
2022/10/18 02:40:59;;;;;;;37.78;13.70;;;;;;;11.68;100.00;102680.97;5041293;28;20402;-64
2022/10/18 02:43:25;;;;;;;28.48;12.45;;;;;;;11.63;100.00;102679.22;5062314;28;20035;-64
2022/10/18 02:45:51;;;;;;;23.27;11.90;;;;;;;11.62;100.00;102679.28;5066784;28;20471;-64
2022/10/18 02:48:16;;;;;;;24.58;12.05;;;;;;;11.59;100.00;102684.56;5067788;28;20024;-64
2022/10/18 02:50:41;;;;;;;16.80;10.48;;;;;;;11.58;100.00;102672.25;5067790;28;20098;-64
2022/10/18 02:53:07;;;;;;;21.35;10.50;;;;;;;11.59;100.00;102674.88;5068852;28;20020;-64
2022/10/18 02:55:32;;;;;;;18.10;10.13;;;;;;;11.59;100.00;102674.88;5068420;28;20073;-64
2022/10/18 02:57:57;;;;;;;17.33;9.60;;;;;;;11.59;100.00;102684.56;5068654;28;20128;-64
2022/10/18 03:00:23;;;;;;;16.58;10.15;;;;;;;11.59;100.00;102679.28;5068692;28;20180;-64
2022/10/18 03:02:48;;;;;;;19.70;11.20;;;;;;;11.56;100.00;102672.25;5067957;28;20025;-64
2022/10/18 03:05:13;;;;;;;19.80;10.70;;;;;;;11.53;100.00;102679.34;5068648;28;20542;-64
2022/10/18 03:07:39;;;;;;;15.98;9.35;;;;;;;11.46;100.00;102678.50;5067670;28;20063;-64
2022/10/18 03:10:05;;;;;;;15.27;8.60;;;;;;;11.38;100.00;102679.44;5067832;28;20474;-64
2022/10/18 03:12:30;;;;;;;14.88;8.82;;;;;;;11.30;100.00;102676.00;5068537;28;20029;-64
2022/10/18 03:14:55;;;;;;;11.98;8.30;;;;;;;11.23;100.00;102676.94;5068654;28;20490;-64
2022/10/18 03:17:21;;;;;;;16.25;9.18;;;;;;;11.15;100.00;102670.81;5050133;28;20486;-64
2022/10/18 03:19:46;;;;;;;10.90;7.93;;;;;;;11.10;100.00;102670.84;5068774;28;20585;-65
2022/10/18 03:22:11;;;;;;;10.10;8.10;;;;;;;11.08;100.00;102667.34;5068837;28;20367;-65
2022/10/18 03:24:37;;;;;;;9.88;7.55;;;;;;;11.10;100.00;102679.66;5050784;28;20526;-64
2022/10/18 03:27:02;;;;;;;9.35;8.10;;;;;;;11.14;100.00;102677.00;5051465;28;20039;-64
2022/10/18 03:29:27;;;;;;;8.88;7.72;;;;;;;11.16;100.00;102681.34;5068522;28;20036;-63
2022/10/18 03:31:53;;;;;;;14.05;8.07;;;;;;;11.16;100.00;102693.66;5067857;28;20029;-64
2022/10/18 03:34:18;;;;;;;8.13;7.18;;;;;;;11.14;100.00;102698.97;5068690;28;20024;-64
2022/10/18 03:36:44;;;;;;;10.27;7.65;;;;;;;11.11;100.00;102694.56;5067768;28;20055;-64
2022/10/18 03:39:11;;;;;;;11.32;8.60;;;;;;;11.06;100.00;102691.09;5068090;28;20025;-64
2022/10/18 03:41:36;;;;;;;10.88;7.90;;;;;;;11.04;100.00;102700.78;5067480;28;20391;-64
2022/10/18 03:44:01;;;;;;;9.30;7.97;;;;;;;11.06;100.00;102695.50;5068168;28;20103;-63
2022/10/18 03:46:27;;;;;;;9.23;7.30;;;;;;;11.06;100.00;102693.75;5067471;28;20051;-64
2022/10/18 03:48:52;;;;;;;15.65;8.57;;;;;;;11.10;100.00;102691.94;5068106;28;20024;-63
2022/10/18 03:51:17;;;;;;;28.55;9.23;;;;;;;11.15;100.00;102686.66;5068054;28;20021;-64
2022/10/18 03:53:43;;;;;;;12.10;8.32;;;;;;;11.19;100.00;102681.34;5068305;28;20167;-64
2022/10/18 03:56:08;;;;;;;9.45;7.40;;;;;;;11.20;100.00;102682.22;5049255;28;20060;-64
2022/10/18 03:58:33;;;;;;;10.15;7.20;;;;;;;11.17;100.00;102682.25;5068386;28;20036;-64
2022/10/18 04:00:59;;;;;;;11.45;7.47;;;;;;;11.14;100.00;102692.81;5067004;28;20074;-65
2022/10/18 04:03:24;;;;;;;14.63;7.75;;;;;;;11.07;100.00;102690.22;5067221;28;20050;-65
2022/10/18 04:05:49;;;;;;;13.13;7.20;;;;;;;11.02;100.00;102692.03;5067543;28;20072;-64
2022/10/18 04:08:15;;;;;;;12.23;8.05;;;;;;;10.95;100.00;102683.25;5067892;28;20024;-65
2022/10/18 04:10:41;;;;;;;13.73;9.07;;;;;;;10.89;100.00;102682.44;5067807;28;20059;-65
2022/10/18 04:13:06;;;;;;;7.97;7.20;;;;;;;10.89;100.00;102687.69;5067117;28;20033;-66
2022/10/18 04:15:32;;;;;;;11.77;7.43;;;;;;;10.89;100.00;102677.16;5068304;28;20017;-64
2022/10/18 04:17:57;;;;;;;15.98;8.10;;;;;;;10.85;100.00;102677.16;5065766;28;20025;-64
2022/10/18 04:20:23;;;;;;;10.63;7.35;;;;;;;10.85;100.00;102686.81;5067065;28;20036;-64
2022/10/18 04:22:49;;;;;;;9.40;7.35;;;;;;;10.87;100.00;102685.94;5054642;28;20025;-63
2022/10/18 04:25:15;;;;;;;8.70;7.32;;;;;;;10.82;100.00;102681.56;5050223;28;20747;-64
2022/10/18 04:27:41;;;;;;;13.00;8.10;;;;;;;10.77;100.00;102688.63;5066329;28;20032;-64
2022/10/18 04:30:06;;;;;;;10.43;7.32;;;;;;;10.71;100.00;102674.59;5064677;28;20023;-64
2022/10/18 04:32:33;;;;;;;11.52;7.90;;;;;;;10.68;100.00;102684.25;5065260;28;20044;-64
2022/10/18 04:34:59;;;;;;;10.98;8.27;;;;;;;10.64;100.00;102674.63;5060366;28;20019;-63
2022/10/18 04:37:24;;;;;;;12.23;8.43;;;;;;;10.58;100.00;102679.06;5052745;28;20378;-63
2022/10/18 04:39:49;;;;;;;10.20;6.97;;;;;;;10.53;100.00;102679.97;5055787;28;20037;-65
2022/10/18 04:42:15;;;;;;;10.48;6.70;;;;;;;10.49;100.00;102694.91;5047502;28;20021;-65
2022/10/18 04:44:40;;;;;;;12.77;7.03;;;;;;;10.49;100.00;102705.44;5053841;28;20095;-64
2022/10/18 04:47:05;;;;;;;9.38;7.20;;;;;;;10.49;100.00;102705.44;5057223;28;20119;-66
2022/10/18 04:49:31;;;;;;;9.77;7.35;;;;;;;10.47;100.00;102708.06;5054052;28;20100;-64
2022/10/18 04:51:56;;;;;;;23.13;8.35;;;;;;;10.42;100.00;102701.91;5054131;28;20116;-65
2022/10/18 04:54:22;;;;;;;13.23;8.23;;;;;;;10.40;100.00;102695.78;5052103;28;20017;-64
2022/10/18 04:56:47;;;;;;;10.23;7.60;;;;;;;10.38;100.00;102691.41;5064893;28;20360;-65
2022/10/18 04:59:12;;;;;;;8.48;6.82;;;;;;;10.36;100.00;102694.03;5050237;28;20437;-63
2022/10/18 05:01:38;;;;;;;11.38;7.68;;;;;;;10.34;100.00;102701.94;5047464;28;20482;-65
2022/10/18 05:04:03;;;;;;;10.63;7.82;;;;;;;10.35;100.00;102708.97;5032221;28;20601;-63
2022/10/18 05:06:28;;;;;;;10.02;7.70;;;;;;;10.40;100.00;102716.84;5035336;28;20542;-64
2022/10/18 05:08:54;;;;;;;9.73;7.45;;;;;;;10.42;100.00;102714.22;5062581;28;20547;-64
2022/10/18 05:11:19;;;;;;;7.82;6.72;;;;;;;10.52;100.00;102725.63;5066776;28;20028;-64
2022/10/18 05:13:44;;;;;;;7.88;7.07;;;;;;;10.59;100.00;102725.59;5066008;28;20097;-63
2022/10/18 05:16:10;;;;;;;7.97;7.03;;;;;;;10.65;100.00;102731.75;5065932;28;20017;-64
2022/10/18 05:18:35;;;;;;;7.95;6.50;;;;;;;10.67;100.00;102717.69;5069424;28;20119;-65
2022/10/18 05:21:01;;;;;;;7.45;6.63;;;;;;;10.68;100.00;102729.06;5067899;28;20047;-64
2022/10/18 05:23:26;;;;;;;9.70;5.90;;;;;;;10.66;100.00;102725.59;5066415;28;20025;-64
2022/10/18 05:25:52;;;;;;;6.10;5.50;;;;;;;10.61;100.00;102720.34;5047491;28;20379;-65
2022/10/18 05:28:18;;;;;;;7.82;6.05;;;;;;;10.57;100.00;102730.00;5048973;28;20528;-64
2022/10/18 05:30:43;;;;;;;16.27;6.57;;;;;;;10.56;100.00;102737.91;5067060;28;20107;-64
2022/10/18 05:33:09;;;;;;;24.35;8.02;;;;;;;10.48;100.00;102737.97;5068001;28;20024;-66
2022/10/18 05:35:34;;;;;;;24.27;8.57;;;;;;;10.39;100.00;102736.19;5071021;28;20033;-65
2022/10/18 05:38:04;;;;;;;9.85;6.72;;;;;;;10.32;100.00;102724.78;5070882;28;20028;-64
2022/10/18 05:40:30;;;;;;;21.02;7.75;;;;;;;10.27;100.00;102723.94;5038550;28;20074;-64
2022/10/18 05:42:56;;;;;;;15.18;7.13;;;;;;;10.22;100.00;102730.94;5032677;28;20029;-64
2022/10/18 05:45:21;;;;;;;10.38;6.65;;;;;;;10.23;100.00;102737.97;5049808;28;20027;-65
2022/10/18 05:47:46;;;;;;;17.15;6.35;;;;;;;10.18;100.00;102740.59;5049492;28;20036;-64
2022/10/18 05:50:12;;;;;;;10.20;7.55;;;;;;;10.17;100.00;102738.84;5050668;28;20028;-64
2022/10/18 05:52:37;;;;;;;11.65;6.97;;;;;;;10.10;100.00;102740.63;5069879;28;20035;-66
2022/10/18 05:55:03;;;;;;;13.52;7.47;;;;;;;10.05;100.00;102747.66;5070362;28;20028;-63
2022/10/18 05:57:28;;;;;;;27.48;8.40;;;;;;;10.02;100.00;102747.66;5070190;28;20021;-64
2022/10/18 05:59:53;;;;;;;17.27;8.00;;;;;;;10.02;100.00;102758.19;5070159;28;20051;-64
2022/10/18 06:02:19;;;;;;;11.13;7.40;;;;;;;10.05;100.00;102762.59;5069544;28;20043;-64
2022/10/18 06:04:44;;;;;;;10.20;7.55;;;;;;;10.08;100.00;102762.56;5070165;28;20035;-64
2022/10/18 06:07:10;;;;;;;16.63;8.23;;;;;;;10.01;100.00;102759.06;5070044;28;20487;-64
2022/10/18 06:09:36;;;;;;;8.48;7.50;;;;;;;9.93;100.00;102758.22;5069099;28;20355;-65
2022/10/18 06:12:02;;;;;;;7.00;6.30;;;;;;;9.84;100.00;102759.06;5051617;28;20016;-64
2022/10/18 06:14:27;;;;;;;6.75;5.72;;;;;;;9.82;100.00;102772.22;5069351;28;20032;-64
2022/10/18 06:16:55;;;;;;;19.10;7.78;;;;;;;9.81;100.00;102786.28;5068783;28;20060;-64
2022/10/18 06:19:20;;;;;;;8.40;6.95;;;;;;;9.78;100.00;102785.41;5057609;28;20044;-64
2022/10/18 06:21:45;;;;;;;10.25;8.30;;;;;;;9.74;100.00;102779.25;5049600;28;20021;-64
2022/10/18 06:24:11;;;;;;;26.33;9.20;;;;;;;9.70;100.00;102782.78;5058344;28;20111;-64
2022/10/18 06:26:36;;;;;;;9.70;7.55;;;;;;;9.68;100.00;102792.41;5068470;28;20099;-65
2022/10/18 06:29:01;;;;;;;22.50;8.70;;;;;;;9.68;100.00;102805.56;5069945;28;20021;-64
2022/10/18 06:31:27;;;;;;;18.27;9.15;;;;;;;9.70;100.00;102801.19;5068487;28;20051;-65
2022/10/18 06:33:55;;;;;;;14.43;8.68;;;;;;;9.72;100.00;102799.44;5069377;28;20051;-64
2022/10/18 06:36:23;;;;;;;15.93;9.57;;;;;;;9.75;100.00;102795.94;5050639;28;20486;-63
2022/10/18 06:38:49;;;;;;;15.02;9.13;;;;;;;9.76;100.00;102797.69;5069217;28;20025;-63
2022/10/18 06:41:14;;;;;;;40.50;10.07;;;;;;;9.78;100.00;102809.13;5066235;28;20040;-63
2022/10/18 06:43:40;;;;;;;15.82;9.38;;;;;;;9.83;100.00;102815.25;5049587;28;20024;-64
2022/10/18 06:46:06;;;;;;;17.50;9.57;;;;;;;9.79;100.00;102814.38;5067193;28;20528;-64
2022/10/18 06:48:33;;;;;;;18.08;9.60;;;;;;;9.78;100.00;102809.97;5069049;28;20036;-64
2022/10/18 06:51:01;;;;;;;17.52;8.93;;;;;;;9.81;100.00;102806.47;5068682;28;20032;-64
2022/10/18 06:53:32;;;;;;;16.33;8.30;;;;;;;9.96;100.00;102813.50;5068212;28;20017;-63
2022/10/18 06:56:02;;;;;;;14.40;8.52;;;;;;;10.03;100.00;102823.19;5048124;28;20078;-63
2022/10/18 06:58:28;;;;;;;14.05;8.57;;;;;;;10.04;100.00;102827.56;5049867;28;20095;-63
2022/10/18 07:00:54;;;;;;;12.45;7.07;;;;;;;10.05;100.00;102826.66;5064977;28;20418;-63
2022/10/18 07:03:20;;;;;;;8.90;7.07;;;;;;;10.03;100.00;102817.03;5068804;28;20017;-63
2022/10/18 07:05:46;;;;;;;6.40;5.53;;;;;;;10.11;100.00;102820.53;5068710;28;20048;-64
2022/10/18 07:08:12;;;;;;;11.00;5.82;;;;;;;10.18;100.00;102822.28;5067050;28;20071;-68
2022/10/18 07:10:37;;;;;;;4.78;4.30;;;;;;;10.27;100.00;102834.59;5068464;28;20096;-63
2022/10/18 07:13:02;;;;;;;12.40;6.18;;;;;;;10.32;100.00;102834.56;5068120;28;20071;-64
2022/10/18 07:15:28;;;;;;;10.38;6.05;;;;;;;10.33;100.00;102829.28;5068443;28;20100;-64
2022/10/18 07:17:53;;;;;;;8.77;6.15;;;;;;;10.36;100.00;102831.94;5049301;28;20032;-64
2022/10/18 07:20:19;;;;;;;10.13;5.28;;;;;;;10.39;100.00;102831.06;5067833;28;20066;-64
2022/10/18 07:22:44;;;;;;;5.10;4.60;;;;;;;10.46;100.00;102838.13;5068208;28;20025;-64
2022/10/18 07:25:09;;;;;;;11.13;5.03;;;;;;;10.52;100.00;102845.13;5067544;28;20070;-64
2022/10/18 07:27:39;;;;;;;11.98;5.70;;;;;;;10.48;100.00;102851.28;5068465;28;20044;-65
2022/10/18 07:30:07;;;;;;;5.57;5.07;;;;;;;10.52;100.00;102842.50;5048545;28;20021;-65
2022/10/18 07:32:32;;;;;;;8.85;5.68;;;;;;;10.55;100.00;102844.25;5067734;28;20111;-65
2022/10/18 07:34:58;;;;;;;5.75;4.65;;;;;;;10.56;100.00;102857.41;5067583;28;20103;-64
2022/10/18 07:37:23;;;;;;;5.90;5.30;;;;;;;10.61;100.00;102863.56;5065323;28;20174;-64
2022/10/18 07:39:48;;;;;;;9.25;5.32;;;;;;;10.66;100.00;102867.97;5067462;28;20119;-65
2022/10/18 07:42:13;;;;;;;7.03;5.25;;;;;;;10.72;100.00;102860.03;5066178;28;20083;-64
2022/10/18 07:44:39;;;;;;;6.93;4.97;;;;;;;10.81;100.00;102865.28;5067674;28;20052;-65
2022/10/18 07:47:04;;;;;;;12.45;4.80;;;;;;;10.89;100.00;102872.31;5066840;28;20028;-65
2022/10/18 07:49:29;;;;;;;6.75;4.22;;;;;;;10.98;100.00;102888.09;5067539;28;20020;-65
2022/10/18 07:51:55;;;;;;;10.23;4.13;;;;;;;11.07;100.00;102884.53;5066744;28;20032;-64
2022/10/18 07:54:21;;;;;;;6.72;4.63;;;;;;;11.14;100.00;102888.94;5066304;28;20374;-63
2022/10/18 07:56:46;;;;;;;6.47;4.75;;;;;;;11.24;100.00;102888.03;5065961;28;20025;-64
2022/10/18 07:59:12;;;;;;;10.02;5.93;;;;;;;11.33;100.00;102889.75;5065130;28;20482;-64
2022/10/18 08:01:37;;;;;;;10.13;5.50;;;;;;;11.44;100.00;102891.47;5060848;28;20035;-64
2022/10/18 08:04:03;;;;;;;8.27;5.63;;;;;;;11.57;100.00;102892.28;5047305;28;20037;-64
2022/10/18 08:06:28;;;;;;;10.20;5.55;;;;;;;11.66;100.00;102901.91;5063774;28;20406;-64
2022/10/18 08:08:53;;;;;;;11.43;6.28;;;;;;;11.73;100.00;102893.06;5065334;28;20914;-64
2022/10/18 08:11:21;;;;;;;12.35;5.75;;;;;;;11.83;100.00;102893.91;5065625;28;20029;-64
2022/10/18 08:13:47;;;;;;;9.82;6.38;;;;;;;11.92;100.00;102898.25;5065759;28;20016;-64
2022/10/18 08:16:14;;;;;;;11.68;5.63;;;;;;;12.00;100.00;102902.59;5066207;28;20301;-65
2022/10/18 08:18:40;;;;;;;8.30;5.40;;;;;;;12.10;100.00;102898.13;5049383;28;20466;-65
2022/10/18 08:21:07;;;;;;;10.88;6.10;;;;;;;12.23;100.00;102890.13;5064189;28;20042;-64
2022/10/18 08:23:33;;;;;;;15.50;5.95;;;;;;;12.32;100.00;102889.19;5066800;28;20050;-64
2022/10/18 08:26:08;;;;;;;19.20;5.90;;;;;;;12.39;100.00;102880.28;5065286;28;20545;-64
2022/10/18 08:28:36;;;;;;;18.20;5.75;;;;;;;12.47;100.00;102886.41;5066882;28;20021;-64
2022/10/18 08:31:03;;;;;;;15.00;5.30;;;;;;;12.55;100.00;102888.09;5067210;28;20024;-66
2022/10/18 08:33:29;;;;;;;14.02;5.20;;;;;;;12.61;100.00;102894.19;5066869;28;20017;-64
2022/10/18 08:35:55;;;;;;;19.35;5.65;;;;;;;12.69;100.00;102893.25;5067196;28;20032;-63
2022/10/18 08:38:21;;;;;;;10.02;4.60;;;;;;;12.77;100.00;102894.06;5048842;28;20179;-63
2022/10/18 08:40:46;;;;;;;16.92;6.20;;;;;;;12.90;100.00;102897.44;5066526;28;20617;-64
2022/10/18 08:43:35;;;;;;;15.75;5.70;;;;;;;13.01;100.00;102907.91;5066754;28;20737;-64
2022/10/18 08:46:01;;;;;;;19.10;5.13;;;;;;;13.08;100.00;102903.41;5048675;28;20024;-64
2022/10/18 08:48:34;;;;;;;13.02;5.13;;;;;;;13.13;100.00;102898.97;5067135;28;20036;-64
2022/10/18 08:51:00;;;;;;;14.20;4.32;;;;;;;13.19;100.00;102901.53;5066061;28;20154;-64
2022/10/18 08:53:49;;;;;;;10.52;4.50;;;;;;;13.27;100.00;102910.25;5043537;28;20114;-64
2022/10/18 08:56:20;;;;;;;15.57;4.72;;;;;;;13.34;100.00;102904.88;5046562;28;20028;-64
2022/10/18 08:58:45;;;;;;;23.02;4.70;;;;;;;13.51;100.00;102904.69;5064285;28;20029;-64
2022/10/18 09:01:29;;;;;;;24.80;3.75;;;;;;;13.66;100.00;102905.41;5062118;28;20020;-62
2022/10/18 09:04:03;;;;;;;13.38;3.15;;;;;;;13.72;100.00;102900.00;5064684;28;20029;-64
2022/10/18 09:06:36;;;;;;;12.88;2.95;;;;;;;13.89;100.00;102905.06;5065021;28;20117;-63
2022/10/18 09:09:27;;;;;;;19.33;2.90;;;;;;;14.03;100.00;102896.91;5049098;28;20024;-64
2022/10/18 09:12:23;;;;;;;21.92;2.60;;;;;;;14.09;100.00;102896.78;5040832;28;20098;-64
2022/10/18 09:15:07;;;;;;;22.48;3.33;;;;;;;14.19;100.00;102901.94;5013009;28;20033;-63
2022/10/18 09:17:49;;;;;;;17.38;3.00;;;;;;;14.24;100.00;102910.72;5065200;28;20032;-65
2022/10/18 09:20:34;;;;;;;12.52;2.53;;;;;;;14.27;100.00;102913.31;5048159;28;20032;-65
2022/10/18 09:23:27;;;;;;;21.63;2.70;;;;;;;14.23;100.00;102922.22;5048219;28;20520;-64
2022/10/18 09:26:02;;;;;;;15.23;2.90;;;;;;;14.11;100.00;102920.63;5064368;28;20524;-65
2022/10/18 09:28:43;;;;;;;18.30;2.33;;;;;;;14.09;100.00;102920.66;5064658;28;20021;-64
2022/10/18 09:31:41;;;;;;;11.82;1.85;;;;;;;14.11;100.00;102912.66;5065343;28;20360;-66
2022/10/18 09:34:45;;;;;;;14.98;1.90;;;;;;;14.15;100.00;102920.56;5064612;28;20085;-64
2022/10/18 09:37:13;;;;;;;11.52;2.40;;;;;;;14.25;100.00;102920.41;5046860;28;20025;-64
2022/10/18 09:39:39;;;;;;;17.17;2.20;;;;;;;14.30;100.00;102926.50;5066284;28;20037;-64
2022/10/18 09:42:13;;;;;;;15.30;1.92;;;;;;;14.33;100.00;102942.38;5042606;28;20460;-65
2022/10/18 09:44:43;;;;;;;13.15;2.08;;;;;;;14.42;100.00;102948.44;5045367;28;20036;-64
2022/10/18 09:47:13;;;;;;;12.35;1.92;;;;;;;14.47;100.00;102938.63;5047597;28;20098;-63
2022/10/18 09:49:42;;;;;;;9.80;2.10;;;;;;;14.53;100.00;102930.56;5066553;28;20020;-64
2022/10/18 09:52:16;;;;;;;12.73;1.67;;;;;;;14.64;100.00;102947.19;5060097;28;20077;-66
2022/10/18 09:54:54;;;;;;;9.70;1.73;;;;;;;14.85;100.00;102949.50;5068575;28;20032;-63
2022/10/18 09:57:31;;;;;;;13.95;2.10;;;;;;;14.96;100.00;102951.97;5068435;28;20028;-64
2022/10/18 09:59:57;;;;;;;8.18;1.75;;;;;;;15.04;100.00;102944.72;5069505;28;20032;-63
2022/10/18 10:02:22;;;;;;;8.55;1.75;;;;;;;15.14;100.00;102951.59;5086296;28;20093;-63
2022/10/18 10:04:49;;;;;;;11.00;1.85;;;;;;;15.27;100.00;102954.03;5083510;28;20024;-65
2022/10/18 10:07:20;;;;;;;8.10;1.55;;;;;;;15.36;100.00;102958.28;5065071;28;20028;-64
2022/10/18 10:09:49;;;;;;;8.52;1.60;;;;;;;15.42;100.00;102958.16;5028182;28;20176;-64
2022/10/18 10:12:35;;;;;;;9.32;1.88;;;;;;;15.49;100.00;102953.56;5032394;28;20083;-64
2022/10/18 10:15:21;;;;;;;7.30;1.58;;;;;;;15.58;100.00;102958.69;5055803;28;20032;-66
2022/10/18 10:17:59;;;;;;;10.07;1.63;;;;;;;15.72;98.53;102969.06;5079216;28;20355;-65
2022/10/18 10:20:46;;;;;;;6.70;1.45;;;;;;;15.80;97.60;102963.53;5069649;28;20452;-63
2022/10/18 10:23:21;;;;;;;7.55;1.80;;;;;;;15.91;96.27;102965.97;5069190;28;20108;-65
2022/10/18 10:26:00;;;;;;;5.30;1.73;;;;;;;16.05;94.26;102968.34;5066952;28;20033;-63
2022/10/18 10:28:31;;;;;;;11.40;1.70;;;;;;;16.11;93.66;102965.56;5069300;28;20025;-64
2022/10/18 10:31:28;;;;;;;8.07;1.35;;;;;;;16.27;92.64;102967.84;5050160;28;20058;-65
2022/10/18 10:34:18;;;;;;;6.57;1.40;;;;;;;16.41;92.24;102960.38;5064098;28;20028;-64
2022/10/18 10:36:52;;;;;;;7.05;1.42;;;;;;;16.54;92.79;102965.41;5069260;28;20024;-64
2022/10/18 10:39:19;;;;;;;5.72;1.55;;;;;;;16.61;90.77;102972.31;5069696;28;20170;-65
2022/10/18 10:41:49;;;;;;;10.57;1.90;;;;;;;16.77;89.02;102972.78;5069216;28;20368;-63
2022/10/18 10:44:17;;;;;;;9.35;1.48;;;;;;;16.91;87.01;102964.44;5051259;28;20032;-63
2022/10/18 10:46:42;;;;;;;7.75;1.70;;;;;;;17.01;82.33;102974.84;5050742;28;20021;-65
2022/10/18 10:49:17;;;;;;;6.32;1.48;;;;;;;17.09;80.55;102972.00;5068812;28;20497;-63
2022/10/18 10:51:42;;;;;;;11.80;1.83;;;;;;;17.22;81.29;102984.06;5051349;28;21501;-67
2022/10/18 10:54:16;;;;;;;5.15;1.42;;;;;;;17.32;82.46;102974.03;5064090;28;20408;-64
2022/10/18 10:57:00;;;;;;;10.32;1.60;;;;;;;17.35;82.60;102971.28;5037157;28;20037;-64
2022/10/18 10:59:29;;;;;;;8.02;1.50;;;;;;;17.41;81.73;102971.09;5063595;28;20036;-64
2022/10/18 11:02:13;;;;;;;;;;;;;;;17.50;81.03;102987.72;5030474;28;20037;-63
2022/10/18 11:04:39;;;;;;;8.68;1.90;;;;;;;17.63;81.43;102983.78;5064279;28;19958;-64
2022/10/18 11:07:10;;;;;;;8.35;1.67;;;;;;;17.73;81.50;102978.19;5057499;28;20045;-66
2022/10/18 11:09:43;;;;;;;7.13;1.30;;;;;;;17.84;81.05;102984.06;5046588;28;20048;-65
2022/10/18 11:12:38;;;;;;;7.35;1.20;;;;;;;17.96;82.08;102992.59;5068655;28;20016;-65
2022/10/18 11:15:08;;;;;;;7.55;1.92;;;;;;;18.06;81.81;102988.72;5054670;28;20040;-65
2022/10/18 11:18:18;;;;;;;10.50;1.63;;;;;;;18.12;79.94;102988.56;5064920;28;20021;-64
2022/10/18 11:20:55;;;;;;;9.00;1.85;;;;;;;18.14;79.13;102978.72;5052002;28;20051;-64